Flight Number: AVA1739 Duration: 2:45
Departure: Moscow Sheremetyevo (UUEE) at 17:45 Distance: 964.466 Nm
Arrival: Sofia (LBSF) at 20:30 Equipment: A321

Weather Information
Moscow / Sheremet'Ye , Russia (UUEE) 55-59N 037-30E Apr 14, 2024 - 11:00 PM EDT / 2024.04.15 0300 UTC
Wind: from the WSW (250 degrees) at 11 MPH (10 KT):0
Visibility: greater than 7 mile(s):0 Temperature: 41 F (5 C) Dew Point: 37 F (3 C) Relative Humidity: 86% Pressure (altimeter): 29.41 in. Hg (0996 hPa)
ob: UUEE 150300Z 25005MPS CAVOK 05/03 Q0996 R24L/290051 R24C/290051 NOSIG cycle: 3
Sunrise: 02:26 Sunset: 16:33 (UTC)

Sofia Observ. , Bulgaria (LBSF) 42-39N 023-23E 595M Apr 14, 2024 - 11:00 PM EDT / 2024.04.15 0300 UTC
Wind: Calm:0
Visibility: greater than 7 mile(s):0 Temperature: 42 F (6 C) Dew Point: 41 F (5 C) Relative Humidity: 93% Pressure (altimeter): 30.12 in. Hg (1020 hPa)
ob: LBSF 150300Z AUTO 00000KT 9999 NCD 06/05 Q1020 NOSIG cycle: 3
Sunrise: 03:46 Sunset: 17:05 (UTC)

TAF:2024/04/14 18:18 TAF LBSF 141700Z 1418/1518 29010KT CAVOK BECMG 1418/1420 VRB04KT PROB40 TEMPO 1502/1505 5000 BR SCT010 BECMG 1511/1513 22012KT

Previous Pireps for this route
Date Flightnr Aircraft Flight time Fuel used Landing rate On time
2019-02-04AVA1739A32102.3915465-129Yes
(pireps marked green are flown by you)

Route map